sensor_id;sensor_type;location;lat;lon;timestamp;pressure;altitude;pressure_sealevel;temperature;humidity
75788;BME280;64406;50.024;14.492;2022-11-15T00:00:49;98160.47;;;2.13;93.05
75788;BME280;64406;50.024;14.492;2022-11-15T00:03:20;98166.00;;;2.11;93.03
75788;BME280;64406;50.024;14.492;2022-11-15T00:05:47;98156.75;;;2.14;92.97
75788;BME280;64406;50.024;14.492;2022-11-15T00:08:13;98155.94;;;2.13;92.85
75788;BME280;64406;50.024;14.492;2022-11-15T00:10:39;98157.19;;;2.11;92.72
75788;BME280;64406;50.024;14.492;2022-11-15T00:13:09;98145.75;;;2.10;92.74
75788;BME280;64406;50.024;14.492;2022-11-15T00:15:40;98146.00;;;2.09;93.26
75788;BME280;64406;50.024;14.492;2022-11-15T00:18:10;98141.25;;;2.11;92.78
75788;BME280;64406;50.024;14.492;2022-11-15T00:20:37;98140.91;;;2.07;93.07
75788;BME280;64406;50.024;14.492;2022-11-15T00:23:04;98150.16;;;2.05;92.75
75788;BME280;64406;50.024;14.492;2022-11-15T00:25:30;98154.63;;;2.04;93.06
75788;BME280;64406;50.024;14.492;2022-11-15T00:27:56;98158.03;;;2.11;92.61
75788;BME280;64406;50.024;14.492;2022-11-15T00:30:23;98154.63;;;2.04;92.98
75788;BME280;64406;50.024;14.492;2022-11-15T00:32:49;98150.69;;;1.95;92.82
75788;BME280;64406;50.024;14.492;2022-11-15T00:35:15;98148.09;;;1.88;92.57
75788;BME280;64406;50.024;14.492;2022-11-15T00:37:41;98147.53;;;1.86;92.70
75788;BME280;64406;50.024;14.492;2022-11-15T00:40:08;98153.88;;;1.85;93.00
75788;BME280;64406;50.024;14.492;2022-11-15T00:42:34;98148.78;;;1.84;92.84
75788;BME280;64406;50.024;14.492;2022-11-15T00:45:00;98144.59;;;1.76;93.07
75788;BME280;64406;50.024;14.492;2022-11-15T00:47:25;98147.91;;;1.72;92.77
75788;BME280;64406;50.024;14.492;2022-11-15T00:49:51;98151.47;;;1.66;92.96
75788;BME280;64406;50.024;14.492;2022-11-15T00:52:17;98144.97;;;1.61;92.69
75788;BME280;64406;50.024;14.492;2022-11-15T00:54:42;98145.72;;;1.50;92.83
75788;BME280;64406;50.024;14.492;2022-11-15T00:57:08;98147.88;;;1.42;92.53
75788;BME280;64406;50.024;14.492;2022-11-15T00:59:34;98143.75;;;1.46;92.74
75788;BME280;64406;50.024;14.492;2022-11-15T01:01:59;98146.09;;;1.35;92.71
75788;BME280;64406;50.024;14.492;2022-11-15T01:04:25;98138.94;;;1.36;92.75
75788;BME280;64406;50.024;14.492;2022-11-15T01:06:51;98138.13;;;1.35;92.89
75788;BME280;64406;50.024;14.492;2022-11-15T01:09:16;98125.59;;;1.43;92.62
75788;BME280;64406;50.024;14.492;2022-11-15T01:11:42;98129.63;;;1.45;92.62
75788;BME280;64406;50.024;14.492;2022-11-15T01:14:08;98123.09;;;1.48;92.83
75788;BME280;64406;50.024;14.492;2022-11-15T01:16:33;98123.03;;;1.36;92.42
75788;BME280;64406;50.024;14.492;2022-11-15T01:18:59;98131.22;;;1.34;92.69
75788;BME280;64406;50.024;14.492;2022-11-15T01:21:25;98134.44;;;1.36;92.93
75788;BME280;64406;50.024;14.492;2022-11-15T01:23:55;98127.13;;;1.32;92.99
75788;BME280;64406;50.024;14.492;2022-11-15T01:26:22;98123.47;;;1.33;92.72
75788;BME280;64406;50.024;14.492;2022-11-15T01:28:48;98120.94;;;1.38;92.90
75788;BME280;64406;50.024;14.492;2022-11-15T01:31:19;98119.72;;;1.41;92.94
75788;BME280;64406;50.024;14.492;2022-11-15T01:33:46;98115.78;;;1.43;92.78
75788;BME280;64406;50.024;14.492;2022-11-15T01:36:17;98124.94;;;1.47;92.88
75788;BME280;64406;50.024;14.492;2022-11-15T01:38:44;98118.59;;;1.48;92.82
75788;BME280;64406;50.024;14.492;2022-11-15T01:41:22;98105.91;;;1.50;92.95
75788;BME280;64406;50.024;14.492;2022-11-15T01:43:51;98114.91;;;1.49;93.10
75788;BME280;64406;50.024;14.492;2022-11-15T01:48:57;98117.72;;;1.54;93.11
75788;BME280;64406;50.024;14.492;2022-11-15T01:51:26;98107.44;;;1.58;93.47
75788;BME280;64406;50.024;14.492;2022-11-15T01:53:56;98103.84;;;1.52;93.30
75788;BME280;64406;50.024;14.492;2022-11-15T01:56:25;98106.63;;;1.57;92.85
75788;BME280;64406;50.024;14.492;2022-11-15T01:58:55;98110.38;;;1.68;93.31
75788;BME280;64406;50.024;14.492;2022-11-15T02:01:24;98123.50;;;1.81;93.12
75788;BME280;64406;50.024;14.492;2022-11-15T02:04:13;98120.13;;;1.74;93.11
75788;BME280;64406;50.024;14.492;2022-11-15T02:06:42;98113.03;;;1.68;93.19
75788;BME280;64406;50.024;14.492;2022-11-15T02:09:09;98112.47;;;1.66;93.02
75788;BME280;64406;50.024;14.492;2022-11-15T02:11:36;98113.19;;;1.73;92.99
75788;BME280;64406;50.024;14.492;2022-11-15T02:14:03;98111.25;;;1.80;93.47
75788;BME280;64406;50.024;14.492;2022-11-15T02:31:19;98114.03;;;1.85;93.10
75788;BME280;64406;50.024;14.492;2022-11-15T02:34:00;98094.91;;;1.95;93.17
75788;BME280;64406;50.024;14.492;2022-11-15T02:36:43;98102.09;;;2.06;92.95
75788;BME280;64406;50.024;14.492;2022-11-15T02:39:26;98095.97;;;2.06;93.05
75788;BME280;64406;50.024;14.492;2022-11-15T02:42:26;98087.63;;;2.02;92.50
75788;BME280;64406;50.024;14.492;2022-11-15T02:45:14;98092.81;;;1.97;92.81
75788;BME280;64406;50.024;14.492;2022-11-15T02:47:43;98095.84;;;2.01;92.72
75788;BME280;64406;50.024;14.492;2022-11-15T02:50:14;98095.75;;;2.07;93.08
75788;BME280;64406;50.024;14.492;2022-11-15T02:52:45;98095.97;;;2.06;92.85
75788;BME280;64406;50.024;14.492;2022-11-15T02:55:33;98094.72;;;2.08;92.77
75788;BME280;64406;50.024;14.492;2022-11-15T03:04:08;98091.03;;;2.21;92.95
75788;BME280;64406;50.024;14.492;2022-11-15T03:06:55;98088.38;;;2.21;92.32
75788;BME280;64406;50.024;14.492;2022-11-15T03:09:54;98096.81;;;2.18;92.32
75788;BME280;64406;50.024;14.492;2022-11-15T03:12:30;98089.09;;;2.28;92.52
75788;BME280;64406;50.024;14.492;2022-11-15T03:15:06;98084.56;;;2.17;92.53
75788;BME280;64406;50.024;14.492;2022-11-15T03:17:42;98075.66;;;2.11;92.83
75788;BME280;64406;50.024;14.492;2022-11-15T03:20:11;98074.16;;;2.15;92.70
75788;BME280;64406;50.024;14.492;2022-11-15T03:22:42;98071.03;;;2.07;92.41
75788;BME280;64406;50.024;14.492;2022-11-15T03:25:10;98063.41;;;2.10;92.07
75788;BME280;64406;50.024;14.492;2022-11-15T03:27:43;98064.94;;;2.18;92.69
75788;BME280;64406;50.024;14.492;2022-11-15T03:30:12;98064.72;;;2.31;92.48
75788;BME280;64406;50.024;14.492;2022-11-15T03:32:44;98053.50;;;2.41;92.20
75788;BME280;64406;50.024;14.492;2022-11-15T03:35:18;98061.34;;;2.36;92.45
75788;BME280;64406;50.024;14.492;2022-11-15T03:40:11;98065.53;;;2.32;92.26
75788;BME280;64406;50.024;14.492;2022-11-15T03:42:51;98054.19;;;2.36;91.60
75788;BME280;64406;50.024;14.492;2022-11-15T03:45:27;98063.09;;;2.30;91.73
75788;BME280;64406;50.024;14.492;2022-11-15T03:47:59;98059.63;;;2.30;91.73
75788;BME280;64406;50.024;14.492;2022-11-15T03:50:28;98048.31;;;2.34;91.50
75788;BME280;64406;50.024;14.492;2022-11-15T03:52:55;98046.34;;;2.30;91.65
75788;BME280;64406;50.024;14.492;2022-11-15T03:55:22;98054.09;;;2.31;91.71
75788;BME280;64406;50.024;14.492;2022-11-15T03:57:51;98054.44;;;2.35;91.76
75788;BME280;64406;50.024;14.492;2022-11-15T04:00:17;98051.53;;;2.36;92.01
75788;BME280;64406;50.024;14.492;2022-11-15T04:02:43;98058.16;;;2.45;91.22
75788;BME280;64406;50.024;14.492;2022-11-15T04:05:09;98042.88;;;2.41;91.30
75788;BME280;64406;50.024;14.492;2022-11-15T04:07:34;98044.84;;;2.45;90.81
75788;BME280;64406;50.024;14.492;2022-11-15T04:10:00;98045.78;;;2.39;91.14
75788;BME280;64406;50.024;14.492;2022-11-15T04:12:30;98045.41;;;2.36;90.89
75788;BME280;64406;50.024;14.492;2022-11-15T04:15:10;98041.38;;;2.33;91.36
75788;BME280;64406;50.024;14.492;2022-11-15T04:20:05;98033.75;;;2.37;91.64
75788;BME280;64406;50.024;14.492;2022-11-15T04:22:58;98039.06;;;2.37;91.07
75788;BME280;64406;50.024;14.492;2022-11-15T04:25:43;98038.72;;;2.33;91.50
75788;BME280;64406;50.024;14.492;2022-11-15T04:28:10;98029.00;;;2.27;91.70
75788;BME280;64406;50.024;14.492;2022-11-15T04:30:35;98033.75;;;2.25;91.55
75788;BME280;64406;50.024;14.492;2022-11-15T04:33:01;98031.91;;;2.26;91.72
75788;BME280;64406;50.024;14.492;2022-11-15T04:35:27;98026.00;;;2.24;91.51
75788;BME280;64406;50.024;14.492;2022-11-15T04:37:54;98023.44;;;2.29;91.43
75788;BME280;64406;50.024;14.492;2022-11-15T04:40:19;98030.06;;;2.26;91.68
75788;BME280;64406;50.024;14.492;2022-11-15T04:42:45;98023.81;;;2.32;91.64
75788;BME280;64406;50.024;14.492;2022-11-15T04:45:10;98023.56;;;2.34;91.68
75788;BME280;64406;50.024;14.492;2022-11-15T04:47:36;98028.91;;;2.34;91.47
75788;BME280;64406;50.024;14.492;2022-11-15T04:50:02;98027.53;;;2.31;91.99
75788;BME280;64406;50.024;14.492;2022-11-15T04:52:28;98038.16;;;2.31;92.14
75788;BME280;64406;50.024;14.492;2022-11-15T04:54:53;98026.25;;;2.34;92.14
75788;BME280;64406;50.024;14.492;2022-11-15T04:57:19;98023.34;;;2.35;91.56
75788;BME280;64406;50.024;14.492;2022-11-15T04:59:44;98027.16;;;2.39;91.56
75788;BME280;64406;50.024;14.492;2022-11-15T05:02:10;98024.28;;;2.41;91.39
75788;BME280;64406;50.024;14.492;2022-11-15T05:04:36;98027.84;;;2.35;91.32
75788;BME280;64406;50.024;14.492;2022-11-15T05:07:01;98030.75;;;2.33;91.56
75788;BME280;64406;50.024;14.492;2022-11-15T05:09:29;98029.22;;;2.37;91.16
75788;BME280;64406;50.024;14.492;2022-11-15T05:11:54;98033.41;;;2.33;91.36
75788;BME280;64406;50.024;14.492;2022-11-15T05:14:20;98035.69;;;2.30;91.69
75788;BME280;64406;50.024;14.492;2022-11-15T05:16:46;98032.34;;;2.23;92.01
75788;BME280;64406;50.024;14.492;2022-11-15T05:19:11;98029.44;;;2.24;91.78
75788;BME280;64406;50.024;14.492;2022-11-15T05:21:37;98019.06;;;2.23;91.73
75788;BME280;64406;50.024;14.492;2022-11-15T05:24:03;98031.53;;;2.22;91.75
75788;BME280;64406;50.024;14.492;2022-11-15T05:26:29;98025.19;;;2.23;91.79
75788;BME280;64406;50.024;14.492;2022-11-15T05:28:56;98022.19;;;2.20;92.01
75788;BME280;64406;50.024;14.492;2022-11-15T05:31:22;98022.88;;;2.15;91.98
75788;BME280;64406;50.024;14.492;2022-11-15T05:33:49;98011.56;;;2.20;91.96
75788;BME280;64406;50.024;14.492;2022-11-15T05:36:33;98008.31;;;2.17;91.87
75788;BME280;64406;50.024;14.492;2022-11-15T05:38:59;98005.56;;;2.12;92.20
75788;BME280;64406;50.024;14.492;2022-11-15T05:41:34;98005.56;;;2.12;92.28
75788;BME280;64406;50.024;14.492;2022-11-15T05:44:02;98006.13;;;2.14;91.95
75788;BME280;64406;50.024;14.492;2022-11-15T05:46:32;98008.78;;;2.14;92.21
75788;BME280;64406;50.024;14.492;2022-11-15T05:48:58;98000.44;;;2.11;91.68
75788;BME280;64406;50.024;14.492;2022-11-15T05:51:24;98003.59;;;2.20;91.96
75788;BME280;64406;50.024;14.492;2022-11-15T05:53:55;97999.41;;;2.24;91.72
75788;BME280;64406;50.024;14.492;2022-11-15T05:56:22;98000.94;;;2.20;91.83
75788;BME280;64406;50.024;14.492;2022-11-15T05:58:47;98000.31;;;2.17;91.94
75788;BME280;64406;50.024;14.492;2022-11-15T06:01:13;98000.31;;;2.17;91.59
75788;BME280;64406;50.024;14.492;2022-11-15T06:03:39;98004.97;;;2.22;91.71
75788;BME280;64406;50.024;14.492;2022-11-15T06:06:05;98005.09;;;2.27;91.72
75788;BME280;64406;50.024;14.492;2022-11-15T06:08:30;98009.59;;;2.38;91.50
75788;BME280;64406;50.024;14.492;2022-11-15T06:10:56;98012.03;;;2.40;91.85
75788;BME280;64406;50.024;14.492;2022-11-15T06:13:21;98009.13;;;2.41;91.43
75788;BME280;64406;50.024;14.492;2022-11-15T06:15:47;98023.22;;;2.42;91.73
75788;BME280;64406;50.024;14.492;2022-11-15T06:18:12;98011.66;;;2.36;91.56
75788;BME280;64406;50.024;14.492;2022-11-15T06:20:38;98022.28;;;2.36;91.20
75788;BME280;64406;50.024;14.492;2022-11-15T06:23:04;98016.88;;;2.31;91.16
75788;BME280;64406;50.024;14.492;2022-11-15T06:25:30;98019.41;;;2.26;91.32
75788;BME280;64406;50.024;14.492;2022-11-15T06:27:57;98028.88;;;2.22;91.23
75788;BME280;64406;50.024;14.492;2022-11-15T06:30:25;98023.00;;;2.20;91.17
75788;BME280;64406;50.024;14.492;2022-11-15T06:32:51;98023.56;;;2.22;91.52
75788;BME280;64406;50.024;14.492;2022-11-15T06:35:23;98014.44;;;2.18;91.05
75788;BME280;64406;50.024;14.492;2022-11-15T06:37:48;98016.50;;;2.16;91.05
75788;BME280;64406;50.024;14.492;2022-11-15T06:40:14;98019.63;;;2.13;90.79
75788;BME280;64406;50.024;14.492;2022-11-15T06:42:40;98028.75;;;2.17;90.78
75788;BME280;64406;50.024;14.492;2022-11-15T06:45:06;98026.56;;;2.14;90.89
75788;BME280;64406;50.024;14.492;2022-11-15T06:47:32;98036.16;;;2.15;90.94
75788;BME280;64406;50.024;14.492;2022-11-15T06:49:57;98023.66;;;2.15;90.97
75788;BME280;64406;50.024;14.492;2022-11-15T06:52:23;98015.47;;;2.17;90.14
75788;BME280;64406;50.024;14.492;2022-11-15T06:54:49;98017.31;;;2.05;90.68
75788;BME280;64406;50.024;14.492;2022-11-15T06:57:14;98021.22;;;2.02;90.39
75788;BME280;64406;50.024;14.492;2022-11-15T06:59:40;98027.72;;;2.06;90.68
75788;BME280;64406;50.024;14.492;2022-11-15T07:02:06;98026.44;;;2.09;90.50
75788;BME280;64406;50.024;14.492;2022-11-15T07:04:31;98022.66;;;2.28;90.88
75788;BME280;64406;50.024;14.492;2022-11-15T07:06:57;98016.88;;;2.20;90.36
75788;BME280;64406;50.024;14.492;2022-11-15T07:09:22;98024.59;;;2.21;90.01
75788;BME280;64406;50.024;14.492;2022-11-15T07:11:48;98021.72;;;2.23;90.25
75788;BME280;64406;50.024;14.492;2022-11-15T07:14:13;98026.13;;;2.29;90.34
75788;BME280;64406;50.024;14.492;2022-11-15T07:16:39;98026.91;;;2.29;90.32
75788;BME280;64406;50.024;14.492;2022-11-15T07:19:04;98036.28;;;2.20;89.90
75788;BME280;64406;50.024;14.492;2022-11-15T07:21:30;98022.53;;;2.11;89.83
75788;BME280;64406;50.024;14.492;2022-11-15T07:23:56;98029.56;;;2.17;89.86
75788;BME280;64406;50.024;14.492;2022-11-15T07:26:21;98025.88;;;2.18;90.06
75788;BME280;64406;50.024;14.492;2022-11-15T07:28:47;98025.53;;;2.27;90.17
75788;BME280;64406;50.024;14.492;2022-11-15T07:31:12;98022.44;;;2.18;89.88
75788;BME280;64406;50.024;14.492;2022-11-15T07:33:38;98024.13;;;2.24;90.21
75788;BME280;64406;50.024;14.492;2022-11-15T07:36:05;98020.56;;;2.30;90.19
75788;BME280;64406;50.024;14.492;2022-11-15T07:38:32;98024.28;;;2.41;89.76
75788;BME280;64406;50.024;14.492;2022-11-15T07:41:02;98031.69;;;2.39;89.72
75788;BME280;64406;50.024;14.492;2022-11-15T07:43:29;98024.25;;;2.29;89.35
75788;BME280;64406;50.024;14.492;2022-11-15T07:45:55;98030.19;;;2.31;89.52
75788;BME280;64406;50.024;14.492;2022-11-15T07:48:21;98023.34;;;2.35;89.24
75788;BME280;64406;50.024;14.492;2022-11-15T07:50:46;98027.97;;;2.28;89.64
75788;BME280;64406;50.024;14.492;2022-11-15T07:53:12;98021.25;;;2.37;89.68
75788;BME280;64406;50.024;14.492;2022-11-15T07:55:39;98018.38;;;2.51;89.35
75788;BME280;64406;50.024;14.492;2022-11-15T07:58:07;98021.16;;;2.56;89.02
75788;BME280;64406;50.024;14.492;2022-11-15T08:00:35;98009.13;;;2.65;88.50
75788;BME280;64406;50.024;14.492;2022-11-15T08:03:06;98011.00;;;2.53;88.08
75788;BME280;64406;50.024;14.492;2022-11-15T08:05:32;98019.78;;;2.53;88.24
75788;BME280;64406;50.024;14.492;2022-11-15T08:07:59;98025.78;;;2.72;88.12
75788;BME280;64406;50.024;14.492;2022-11-15T08:10:25;98014.66;;;2.75;88.38
75788;BME280;64406;50.024;14.492;2022-11-15T08:13:01;98025.53;;;2.62;87.91
75788;BME280;64406;50.024;14.492;2022-11-15T08:15:27;98011.22;;;2.51;87.80
75788;BME280;64406;50.024;14.492;2022-11-15T08:17:55;98013.84;;;2.63;88.43
75788;BME280;64406;50.024;14.492;2022-11-15T08:20:21;98012.47;;;2.72;88.30
75788;BME280;64406;50.024;14.492;2022-11-15T08:22:46;98016.63;;;2.80;88.34
75788;BME280;64406;50.024;14.492;2022-11-15T08:25:12;98005.50;;;2.94;88.55
75788;BME280;64406;50.024;14.492;2022-11-15T08:27:38;98015.09;;;2.95;88.30
75788;BME280;64406;50.024;14.492;2022-11-15T08:30:04;98011.84;;;2.93;87.54
75788;BME280;64406;50.024;14.492;2022-11-15T08:32:31;98007.69;;;2.97;87.53
75788;BME280;64406;50.024;14.492;2022-11-15T08:34:56;98009.25;;;3.10;86.57
75788;BME280;64406;50.024;14.492;2022-11-15T08:37:22;98003.06;;;2.93;86.46
75788;BME280;64406;50.024;14.492;2022-11-15T08:39:47;98003.75;;;2.88;86.98
75788;BME280;64406;50.024;14.492;2022-11-15T08:42:13;98001.41;;;3.04;86.73
75788;BME280;64406;50.024;14.492;2022-11-15T08:44:40;98005.91;;;3.15;86.98
75788;BME280;64406;50.024;14.492;2022-11-15T08:47:05;98007.22;;;3.29;86.40
75788;BME280;64406;50.024;14.492;2022-11-15T08:49:31;98007.22;;;3.29;86.29
75788;BME280;64406;50.024;14.492;2022-11-15T08:51:57;97996.38;;;3.31;85.87
75788;BME280;64406;50.024;14.492;2022-11-15T08:54:22;97997.91;;;3.43;84.99
75788;BME280;64406;50.024;14.492;2022-11-15T08:56:48;97994.69;;;3.41;85.95
75788;BME280;64406;50.024;14.492;2022-11-15T08:59:14;98003.63;;;3.35;85.58
75788;BME280;64406;50.024;14.492;2022-11-15T09:01:39;98009.41;;;3.44;85.23
75788;BME280;64406;50.024;14.492;2022-11-15T09:04:05;98001.16;;;3.45;85.79
75788;BME280;64406;50.024;14.492;2022-11-15T09:06:31;98004.81;;;3.56;84.74
75788;BME280;64406;50.024;14.492;2022-11-15T09:08:56;97998.75;;;3.44;85.09
75788;BME280;64406;50.024;14.492;2022-11-15T09:11:22;97988.81;;;3.39;85.30
75788;BME280;64406;50.024;14.492;2022-11-15T09:13:49;97996.31;;;3.42;85.14
75788;BME280;64406;50.024;14.492;2022-11-15T09:16:15;98001.34;;;3.55;85.20
75788;BME280;64406;50.024;14.492;2022-11-15T09:18:41;97996.44;;;3.64;84.55
75788;BME280;64406;50.024;14.492;2022-11-15T09:21:07;98003.41;;;3.65;84.53
75788;BME280;64406;50.024;14.492;2022-11-15T09:23:33;98007.72;;;3.83;83.88
75788;BME280;64406;50.024;14.492;2022-11-15T09:26:03;97995.31;;;3.60;83.60
75788;BME280;64406;50.024;14.492;2022-11-15T09:28:30;97989.41;;;3.58;84.16
75788;BME280;64406;50.024;14.492;2022-11-15T09:31:00;97993.53;;;3.66;83.33
75788;BME280;64406;50.024;14.492;2022-11-15T09:33:27;97996.81;;;3.56;84.17
75788;BME280;64406;50.024;14.492;2022-11-15T09:35:53;97989.84;;;3.67;84.16
75788;BME280;64406;50.024;14.492;2022-11-15T09:38:19;97989.53;;;3.63;84.48
75788;BME280;64406;50.024;14.492;2022-11-15T09:40:48;97987.41;;;3.65;84.40
75788;BME280;64406;50.024;14.492;2022-11-15T09:43:29;97983.31;;;3.74;83.35
75788;BME280;64406;50.024;14.492;2022-11-15T09:48:53;97976.69;;;3.77;82.31
75788;BME280;64406;50.024;14.492;2022-11-15T09:51:25;97973.78;;;3.78;82.67
75788;BME280;64406;50.024;14.492;2022-11-15T09:53:57;97976.38;;;3.73;83.19
75788;BME280;64406;50.024;14.492;2022-11-15T09:56:30;97973.28;;;3.81;83.11
75788;BME280;64406;50.024;14.492;2022-11-15T09:59:07;97974.13;;;3.99;83.38
75788;BME280;64406;50.024;14.492;2022-11-15T10:04:21;97968.63;;;4.05;81.48
75788;BME280;64406;50.024;14.492;2022-11-15T10:07:15;97972.09;;;4.06;81.15
75788;BME280;64406;50.024;14.492;2022-11-15T10:09:49;97971.03;;;4.07;81.35
75788;BME280;64406;50.024;14.492;2022-11-15T10:12:17;97965.88;;;4.00;81.59
75788;BME280;64406;50.024;14.492;2022-11-15T10:14:43;97955.88;;;3.91;82.32
75788;BME280;64406;50.024;14.492;2022-11-15T10:20:17;97957.88;;;4.00;82.54
75788;BME280;64406;50.024;14.492;2022-11-15T10:23:00;97956.03;;;4.01;82.24
75788;BME280;64406;50.024;14.492;2022-11-15T10:25:31;97965.31;;;3.98;82.76
75788;BME280;64406;50.024;14.492;2022-11-15T10:30:56;97950.69;;;4.01;80.88
75788;BME280;64406;50.024;14.492;2022-11-15T10:41:17;97937.63;;;3.99;82.00
75788;BME280;64406;50.024;14.492;2022-11-15T10:43:43;97932.44;;;3.93;81.93
75788;BME280;64406;50.024;14.492;2022-11-15T10:48:45;97932.75;;;4.13;81.91
75788;BME280;64406;50.024;14.492;2022-11-15T10:51:20;97929.03;;;4.14;80.80
75788;BME280;64406;50.024;14.492;2022-11-15T10:53:48;97928.44;;;3.90;82.07
75788;BME280;64406;50.024;14.492;2022-11-15T10:56:14;97920.50;;;3.78;82.12
75788;BME280;64406;50.024;14.492;2022-11-15T10:58:49;97929.22;;;3.91;82.01
75788;BME280;64406;50.024;14.492;2022-11-15T11:01:18;97921.06;;;3.80;82.71
75788;BME280;64406;50.024;14.492;2022-11-15T11:03:57;97905.63;;;3.99;82.27
75788;BME280;64406;50.024;14.492;2022-11-15T11:06:23;97906.28;;;4.06;82.43
75788;BME280;64406;50.024;14.492;2022-11-15T11:09:00;97902.00;;;4.05;81.96
75788;BME280;64406;50.024;14.492;2022-11-15T11:11:47;97896.88;;;4.21;82.13
75788;BME280;64406;50.024;14.492;2022-11-15T11:14:24;97894.84;;;4.28;82.29
75788;BME280;64406;50.024;14.492;2022-11-15T11:22:30;97892.09;;;3.84;83.75
75788;BME280;64406;50.024;14.492;2022-11-15T11:25:08;97899.28;;;3.84;83.12
75788;BME280;64406;50.024;14.492;2022-11-15T11:27:49;97895.41;;;3.91;82.53
75788;BME280;64406;50.024;14.492;2022-11-15T11:30:21;97882.88;;;3.92;82.80
75788;BME280;64406;50.024;14.492;2022-11-15T11:33:13;97879.88;;;3.88;83.00
75788;BME280;64406;50.024;14.492;2022-11-15T11:43:52;97865.00;;;4.09;82.72
75788;BME280;64406;50.024;14.492;2022-11-15T11:49:20;97855.34;;;4.25;82.39
75788;BME280;64406;50.024;14.492;2022-11-15T11:51:56;97852.59;;;4.36;81.96
75788;BME280;64406;50.024;14.492;2022-11-15T11:54:38;97844.25;;;4.33;81.48
75788;BME280;64406;50.024;14.492;2022-11-15T11:57:25;97842.53;;;4.44;81.27
75788;BME280;64406;50.024;14.492;2022-11-15T11:59:58;97849.66;;;4.38;80.48
75788;BME280;64406;50.024;14.492;2022-11-15T12:02:37;97843.44;;;4.32;80.55
75788;BME280;64406;50.024;14.492;2022-11-15T12:05:32;97835.00;;;4.19;81.69
75788;BME280;64406;50.024;14.492;2022-11-15T12:08:15;97828.00;;;4.13;81.39
75788;BME280;64406;50.024;14.492;2022-11-15T12:10:47;97823.13;;;4.26;81.14
75788;BME280;64406;50.024;14.492;2022-11-15T12:13:19;97822.84;;;4.28;81.22
75788;BME280;64406;50.024;14.492;2022-11-15T12:15:56;97817.94;;;4.42;81.06
75788;BME280;64406;50.024;14.492;2022-11-15T12:18:23;97814.94;;;4.33;81.74
75788;BME280;64406;50.024;14.492;2022-11-15T12:20:56;97809.72;;;4.43;80.90
75788;BME280;64406;50.024;14.492;2022-11-15T12:23:29;97815.25;;;4.36;81.31
75788;BME280;64406;50.024;14.492;2022-11-15T12:26:01;97806.31;;;4.26;81.68
75788;BME280;64406;50.024;14.492;2022-11-15T12:28:44;97809.84;;;4.31;81.72
75788;BME280;64406;50.024;14.492;2022-11-15T12:33:45;97794.28;;;4.23;82.46
75788;BME280;64406;50.024;14.492;2022-11-15T12:41:18;97793.22;;;4.02;83.61
75788;BME280;64406;50.024;14.492;2022-11-15T12:43:45;97788.22;;;4.06;83.35
75788;BME280;64406;50.024;14.492;2022-11-15T12:46:19;97782.56;;;4.02;82.93
75788;BME280;64406;50.024;14.492;2022-11-15T12:48:52;97782.31;;;4.04;83.46
75788;BME280;64406;50.024;14.492;2022-11-15T13:02:22;97763.09;;;4.02;83.54
75788;BME280;64406;50.024;14.492;2022-11-15T13:04:50;97751.63;;;4.01;84.10
75788;BME280;64406;50.024;14.492;2022-11-15T13:10:01;97751.88;;;4.22;82.57
75788;BME280;64406;50.024;14.492;2022-11-15T13:20:22;97745.56;;;4.06;83.58
75788;BME280;64406;50.024;14.492;2022-11-15T13:28:02;97754.53;;;3.78;84.00
75788;BME280;64406;50.024;14.492;2022-11-15T13:30:30;97740.03;;;3.69;85.12
75788;BME280;64406;50.024;14.492;2022-11-15T13:33:00;97739.84;;;3.75;85.03
75788;BME280;64406;50.024;14.492;2022-11-15T13:35:38;97739.03;;;3.75;85.38
75788;BME280;64406;50.024;14.492;2022-11-15T13:38:27;97735.22;;;3.88;85.38
75788;BME280;64406;50.024;14.492;2022-11-15T13:40:52;97732.44;;;3.99;84.56
75788;BME280;64406;50.024;14.492;2022-11-15T13:43:35;97725.97;;;4.17;83.71
75788;BME280;64406;50.024;14.492;2022-11-15T13:46:04;97730.81;;;4.20;83.57
75788;BME280;64406;50.024;14.492;2022-11-15T13:48:30;97729.00;;;3.82;83.95
75788;BME280;64406;50.024;14.492;2022-11-15T13:50:57;97719.41;;;3.81;85.26
75788;BME280;64406;50.024;14.492;2022-11-15T13:53:23;97725.69;;;3.92;84.98
75788;BME280;64406;50.024;14.492;2022-11-15T13:55:50;97717.13;;;3.90;85.07
75788;BME280;64406;50.024;14.492;2022-11-15T13:58:17;97722.13;;;3.86;84.60
75788;BME280;64406;50.024;14.492;2022-11-15T14:00:44;97720.03;;;3.66;86.10
75788;BME280;64406;50.024;14.492;2022-11-15T14:03:19;97713.28;;;3.80;85.73
75788;BME280;64406;50.024;14.492;2022-11-15T14:06:08;97711.47;;;3.86;85.86
75788;BME280;64406;50.024;14.492;2022-11-15T14:08:39;97708.56;;;4.09;84.65
75788;BME280;64406;50.024;14.492;2022-11-15T14:11:13;97709.13;;;4.12;84.65
75788;BME280;64406;50.024;14.492;2022-11-15T14:13:40;97705.06;;;4.31;83.37
75788;BME280;64406;50.024;14.492;2022-11-15T14:16:20;97703.59;;;4.18;84.25
75788;BME280;64406;50.024;14.492;2022-11-15T14:18:51;97687.09;;;4.21;84.51
75788;BME280;64406;50.024;14.492;2022-11-15T14:21:19;97684.19;;;4.23;84.07
75788;BME280;64406;50.024;14.492;2022-11-15T14:23:45;97678.88;;;4.28;84.15
75788;BME280;64406;50.024;14.492;2022-11-15T14:26:29;97689.56;;;4.28;83.58
75788;BME280;64406;50.024;14.492;2022-11-15T14:28:55;97683.75;;;4.31;83.67
75788;BME280;64406;50.024;14.492;2022-11-15T14:31:21;97685.00;;;4.23;84.12
75788;BME280;64406;50.024;14.492;2022-11-15T14:33:47;97677.84;;;4.29;84.20
75788;BME280;64406;50.024;14.492;2022-11-15T14:36:16;97681.53;;;4.23;84.05
75788;BME280;64406;50.024;14.492;2022-11-15T14:38:43;97688.06;;;4.10;84.54
75788;BME280;64406;50.024;14.492;2022-11-15T14:41:28;97688.34;;;4.14;84.58
75788;BME280;64406;50.024;14.492;2022-11-15T14:43:57;97692.81;;;4.08;85.06
75788;BME280;64406;50.024;14.492;2022-11-15T14:46:23;97684.53;;;4.04;84.67
75788;BME280;64406;50.024;14.492;2022-11-15T14:48:49;97677.81;;;4.02;85.06
75788;BME280;64406;50.024;14.492;2022-11-15T14:51:17;97674.00;;;3.93;85.71
75788;BME280;64406;50.024;14.492;2022-11-15T14:53:44;97666.25;;;3.91;86.01